Home   Weather   Sweden   Gothenburg   Past weeks
Flag for Sweden

Past Weather in Gothenburg, Sweden — Yesterday and Last 2 Weeks

Currently: 61 °F. Passing clouds. (Weather station: Gothenburg / Save, Sweden). See more current weather

Past Weather in Gothenburg — Graph

°F

Gothenburg Temperature Yesterday

Maximum temperature yesterday: 75 °F (at 1:50 pm)
Minimum temperature yesterday: 48 °F (at 4:20 am)
Average temperature yesterday: 63 °F

High & Low Weather Summary for the Past Weeks

 TemperatureHumidityPressure
High75 °F (May 17, 2:50 pm)94% (May 9, 6:20 pm)30.30 "Hg (May 9, 6:20 pm)
Low39 °F (May 7, 1:20 am)22% (May 17, 2:20 pm)29.71 "Hg (May 6, 8:20 am)
Average57 °F63%30.10 "Hg
* Reported May 6 8:20 am — May 21 8:20 am, Gothenburg. Weather by CustomWeather, © 2024

Note: Actual official high and low records may vary slightly from our data, if they occured in-between our weather recording intervals... More about our weather records

Gothenburg Weather History for the Previous 24 Hours

Scroll right to see more
 ConditionsComfort  
Time TempWeatherWind HumidityBarometerVisibility
8:20 am
Tue, May 21
59 °FSunny.9 mph39%30.12 "Hg10 mi
7:50 am57 °FSunny.9 mph36%30.12 "Hg10 mi
7:20 am57 °FClear.6 mph39%30.12 "HgN/A
6:50 am55 °FClear.5 mph41%30.12 "HgN/A
6:20 am54 °FClear.6 mph41%30.12 "HgN/A
5:50 am54 °FClear.3 mph44%30.12 "HgN/A
5:20 am54 °FClear.5 mph41%30.12 "HgN/A
4:50 am54 °FClear.5 mph44%30.12 "HgN/A
4:20 am55 °FClear.7 mph41%30.09 "HgN/A
3:20 am57 °FClear.8 mph48%30.09 "HgN/A
2:50 am57 °FClear.9 mph51%30.09 "HgN/A
2:20 am59 °FClear.10 mph51%30.09 "HgN/A
1:50 am59 °FClear.10 mph55%30.09 "HgN/A
1:20 am61 °FClear.8 mph55%30.09 "HgN/A
12:50 am61 °FClear.7 mph59%30.09 "HgN/A
12:20 am59 °FClear.3 mph68%30.07 "HgN/A
11:50 pm
Mon, May 20
57 °FClear.2 mph67%30.07 "HgN/A
11:20 pm59 °FClear.2 mph63%30.07 "HgN/A
10:50 pm57 °FClear.5 mph67%30.07 "HgN/A
10:20 pm59 °FClear.5 mph63%30.04 "HgN/A
9:50 pm63 °FClear.2 mph59%30.04 "Hg10 mi
9:20 pm64 °FClear.3 mph56%30.04 "HgN/A
8:50 pm68 °FSunny.3 mph49%30.04 "Hg10 mi
8:20 pm70 °FPassing clouds.7 mph46%30.04 "HgN/A
7:50 pm70 °FSunny.9 mph46%30.01 "Hg10 mi
7:20 pm72 °FClear.10 mph44%30.01 "HgN/A
6:50 pm72 °FSunny.10 mph47%29.98 "Hg10 mi
6:20 pm73 °FSunny.12 mph41%29.98 "Hg10 mi
5:50 pm73 °FSunny.12 mph44%29.98 "Hg10 mi
5:20 pm73 °FSunny.13 mph44%29.98 "Hg10 mi
4:50 pm73 °FSunny.12 mph44%29.98 "Hg10 mi
4:20 pm75 °FPassing clouds.13 mph41%29.98 "HgN/A
3:50 pm75 °FPassing clouds.14 mph44%29.98 "HgN/A
3:20 pm75 °FSunny.13 mph44%29.98 "Hg10 mi
2:50 pm75 °FPassing clouds.10 mph44%30.01 "HgN/A
1:50 pm75 °FSunny.3 mph44%30.01 "Hg10 mi
1:20 pm73 °FSunny.7 mph44%30.01 "Hg10 mi
12:50 pm73 °FSunny.3 mph44%30.01 "Hg10 mi
12:20 pm73 °FPassing clouds.7 mph47%30.01 "HgN/A
11:50 am72 °FPassing clouds.8 mph47%30.01 "HgN/A
11:20 am70 °FPassing clouds.8 mph50%30.01 "HgN/A
10:50 am68 °FPassing clouds.10 mph53%30.01 "HgN/A
9:50 am64 °FPassing clouds.10 mph56%29.98 "HgN/A
9:20 am64 °FPassing clouds.6 mph56%29.98 "HgN/A
Weather by CustomWeather, © 2024

See weather overview